Time;durP1;ratioP1;P1;durP2;ratioP2;P2;SDS_P1;SDS_P2;PMS_P1;PMS_P2;Temp;Humidity;BMP_temperature;BMP_pressure;BME280_temperature;BME280_humidity;BME280_pressure;Samples;Min_cycle;Max_cycle;Signal;HPM_P1;HPM_P2
2024/01/10 00:00:22;;;;;;;0.93;0.30;;;22.30;46.40;;;;;;5110767;27;20035;-30
2024/01/10 00:02:49;;;;;;;1.00;0.40;;;22.30;46.40;;;;;;5115552;27;20057;-34
2024/01/10 00:05:15;;;;;;;1.92;0.40;;;22.40;46.30;;;;;;5118934;27;20019;-32
2024/01/10 00:07:41;;;;;;;1.10;0.30;;;22.40;46.20;;;;;;5114794;27;20197;-33
2024/01/10 00:10:08;;;;;;;3.15;0.40;;;22.40;46.20;;;;;;5116626;27;20023;-32
2024/01/10 00:12:36;;;;;;;1.25;0.40;;;22.40;46.30;;;;;;5109729;28;20059;-35
2024/01/10 00:15:04;;;;;;;1.08;0.40;;;22.40;46.40;;;;;;5119562;28;20309;-32
2024/01/10 00:17:30;;;;;;;2.88;0.30;;;22.30;46.40;;;;;;5114153;27;20059;-32
2024/01/10 00:19:56;;;;;;;2.58;0.50;;;22.30;46.40;;;;;;5116451;27;20020;-33
2024/01/10 00:22:23;;;;;;;1.17;0.30;;;22.30;46.20;;;;;;5109718;27;20035;-34
2024/01/10 00:24:49;;;;;;;1.75;0.47;;;22.40;46.10;;;;;;5111884;27;20751;-32
2024/01/10 00:27:16;;;;;;;3.00;0.43;;;22.40;46.10;;;;;;5110884;28;20079;-33
2024/01/10 00:29:42;;;;;;;1.42;0.38;;;22.40;46.20;;;;;;5111354;27;20108;-30
2024/01/10 00:32:09;;;;;;;0.80;0.40;;;22.30;46.20;;;;;;5117180;27;20030;-33
2024/01/10 00:34:35;;;;;;;2.08;0.40;;;22.30;46.20;;;;;;5112407;28;20038;-33
2024/01/10 00:37:01;;;;;;;1.45;0.32;;;22.30;46.10;;;;;;5107882;28;20036;-35
2024/01/10 00:39:27;;;;;;;0.80;0.32;;;22.30;46.10;;;;;;5118691;27;20538;-34
2024/01/10 00:41:53;;;;;;;2.10;0.40;;;22.40;46.00;;;;;;5113644;28;20037;-34
2024/01/10 00:44:19;;;;;;;2.05;0.40;;;22.40;46.10;;;;;;5117392;28;20035;-34
2024/01/10 00:46:45;;;;;;;3.50;0.30;;;22.40;46.00;;;;;;5105330;28;20035;-32
2024/01/10 00:49:11;;;;;;;2.88;0.50;;;22.30;46.30;;;;;;5110608;28;20024;-31
2024/01/10 00:51:38;;;;;;;1.33;0.30;;;22.30;46.40;;;;;;5110809;28;20031;-34
2024/01/10 00:54:04;;;;;;;1.75;0.40;;;22.30;46.40;;;;;;5110102;28;20111;-33
2024/01/10 00:56:30;;;;;;;0.80;0.27;;;22.30;46.30;;;;;;5115302;27;20039;-35
2024/01/10 00:58:57;;;;;;;1.77;0.40;;;22.40;46.20;;;;;;5113880;27;20016;-30
2024/01/10 01:01:24;;;;;;;1.42;0.40;;;22.40;46.10;;;;;;5109946;27;20035;-33
2024/01/10 01:03:50;;;;;;;1.63;0.40;;;22.30;46.10;;;;;;5110712;28;20027;-30
2024/01/10 01:06:17;;;;;;;3.17;0.40;;;22.30;46.20;;;;;;5105637;28;20027;-34
2024/01/10 01:08:43;;;;;;;1.25;0.25;;;22.30;46.20;;;;;;5112301;28;20023;-33
2024/01/10 01:11:09;;;;;;;1.15;0.20;;;22.30;46.20;;;;;;5114298;28;20031;-32
2024/01/10 01:13:36;;;;;;;1.48;0.45;;;22.30;46.10;;;;;;5116438;28;20122;-35
2024/01/10 01:16:02;;;;;;;1.10;0.37;;;22.40;46.00;;;;;;5112729;28;20038;-36
2024/01/10 01:18:29;;;;;;;1.77;0.40;;;22.40;45.90;;;;;;5109167;28;20035;-30
2024/01/10 01:20:55;;;;;;;2.25;0.40;;;22.30;45.90;;;;;;5112988;28;20024;-31
2024/01/10 01:23:21;;;;;;;0.90;0.30;;;22.30;46.00;;;;;;5109052;28;20032;-32
2024/01/10 01:25:47;;;;;;;0.90;0.50;;;22.30;46.10;;;;;;5108947;28;20363;-33
2024/01/10 01:28:14;;;;;;;0.60;0.20;;;22.30;46.10;;;;;;5110773;28;20058;-31
2024/01/10 01:30:40;;;;;;;0.57;0.20;;;22.30;46.00;;;;;;5114293;28;20115;-33
2024/01/10 01:33:06;;;;;;;0.80;0.30;;;22.30;45.70;;;;;;5110328;28;20078;-33
2024/01/10 01:35:32;;;;;;;1.90;0.30;;;22.30;45.60;;;;;;5111846;28;20036;-33
2024/01/10 01:37:59;;;;;;;0.90;0.20;;;22.30;45.70;;;;;;5107440;28;20062;-33
2024/01/10 01:40:25;;;;;;;1.25;0.30;;;22.30;45.80;;;;;;5109134;28;20028;-34
2024/01/10 01:42:51;;;;;;;1.38;0.20;;;22.30;45.80;;;;;;5109538;28;20461;-32
2024/01/10 01:45:17;;;;;;;1.23;0.20;;;22.30;45.90;;;;;;5114769;28;20073;-35
2024/01/10 01:47:44;;;;;;;2.53;0.40;;;22.30;45.70;;;;;;5118611;28;20690;-31
2024/01/10 01:50:10;;;;;;;1.00;0.32;;;22.30;45.50;;;;;;5115903;28;20685;-33
2024/01/10 01:52:37;;;;;;;1.83;0.40;;;22.30;45.40;;;;;;5105266;28;20032;-32
2024/01/10 01:55:05;;;;;;;0.98;0.28;;;22.30;45.50;;;;;;5109388;28;20317;-35
2024/01/10 01:57:31;;;;;;;0.68;0.30;;;22.30;45.60;;;;;;5110632;28;20208;-34
2024/01/10 01:59:57;;;;;;;1.35;0.35;;;22.20;45.60;;;;;;5112061;28;20035;-35
2024/01/10 02:02:24;;;;;;;0.88;0.15;;;22.20;45.60;;;;;;5108504;28;20023;-32
2024/01/10 02:04:50;;;;;;;2.10;0.30;;;22.30;45.50;;;;;;5108799;28;20729;-31
2024/01/10 02:07:16;;;;;;;1.27;0.30;;;22.30;45.30;;;;;;5109496;28;20024;-33
2024/01/10 02:09:43;;;;;;;1.50;0.30;;;22.30;45.30;;;;;;5112293;28;20026;-33
2024/01/10 02:12:09;;;;;;;1.45;0.20;;;22.30;45.30;;;;;;5108974;28;20030;-36
2024/01/10 02:14:35;;;;;;;1.73;0.20;;;22.30;46.00;;;;;;5106306;28;20568;-32
2024/01/10 02:17:01;;;;;;;0.63;0.20;;;22.20;45.40;;;;;;5108040;28;20040;-30
2024/01/10 02:19:29;;;;;;;0.50;0.20;;;22.30;45.20;;;;;;5110064;28;20110;-35
2024/01/10 02:21:56;;;;;;;;;;;22.30;45.10;;;;;;5108750;28;20038;-33
2024/01/10 02:24:22;;;;;;;2.00;0.40;;;22.30;45.60;;;;;;5112716;27;19916;-31
2024/01/10 02:26:49;;;;;;;0.60;0.20;;;22.30;45.10;;;;;;5115091;27;20040;-33
2024/01/10 02:29:16;;;;;;;0.63;0.32;;;22.20;45.10;;;;;;5113447;27;20023;-31
2024/01/10 02:31:44;;;;;;;0.43;0.20;;;22.20;45.10;;;;;;5112278;27;20603;-33
2024/01/10 02:34:10;;;;;;;;;;;22.20;45.10;;;;;;5107034;28;20051;-35
2024/01/10 02:36:37;;;;;;;1.05;0.17;;;22.20;44.90;;;;;;5112273;28;19926;-32
2024/01/10 02:39:03;;;;;;;0.85;0.22;;;22.30;44.80;;;;;;5123097;28;20520;-34
2024/01/10 02:41:30;;;;;;;0.73;0.20;;;22.30;44.90;;;;;;5122377;27;20031;-36
2024/01/10 02:43:58;;;;;;;2.25;0.40;;;22.20;44.90;;;;;;5116303;28;20083;-36
2024/01/10 02:46:29;;;;;;;1.08;0.25;;;22.20;44.90;;;;;;5108755;28;20066;-34
2024/01/10 02:48:55;;;;;;;0.22;0.10;;;22.20;45.00;;;;;;5114032;28;20024;-34
2024/01/10 02:51:22;;;;;;;0.70;0.10;;;22.20;44.90;;;;;;5110450;28;20035;-33
2024/01/10 02:53:49;;;;;;;1.48;0.10;;;22.30;44.70;;;;;;5109145;28;20028;-31
2024/01/10 02:56:15;;;;;;;0.50;0.20;;;22.30;44.70;;;;;;5107997;27;20034;-29
2024/01/10 02:58:41;;;;;;;1.00;0.20;;;22.20;44.70;;;;;;5110622;28;20354;-34
2024/01/10 03:01:09;;;;;;;0.55;0.20;;;22.20;44.80;;;;;;5110580;28;20028;-33
2024/01/10 03:03:35;;;;;;;;;;;22.20;45.00;;;;;;5110106;28;20042;-30
2024/01/10 03:06:01;;;;;;;0.98;0.20;;;22.20;45.30;;;;;;5116506;28;19908;-31
2024/01/10 03:08:27;;;;;;;0.32;0.20;;;22.20;44.90;;;;;;5111250;27;20505;-31
2024/01/10 03:10:53;;;;;;;1.17;0.20;;;22.20;44.70;;;;;;5109972;28;20031;-34
2024/01/10 03:13:20;;;;;;;0.85;0.35;;;22.30;44.90;;;;;;5106274;28;20034;-36
2024/01/10 03:15:46;;;;;;;0.85;0.30;;;22.20;44.80;;;;;;5112424;28;20027;-30
2024/01/10 03:18:13;;;;;;;3.53;0.20;;;22.20;44.80;;;;;;5111395;28;20035;-35
2024/01/10 03:20:39;;;;;;;0.43;0.22;;;22.10;44.60;;;;;;5115784;28;20031;-34
2024/01/10 03:23:06;;;;;;;0.60;0.25;;;22.20;44.50;;;;;;5111168;28;20082;-32
2024/01/10 03:25:32;;;;;;;0.93;0.30;;;22.20;44.30;;;;;;5104945;28;20083;-34
2024/01/10 03:27:58;;;;;;;0.85;0.20;;;22.20;44.30;;;;;;5114476;28;20135;-34
2024/01/10 03:30:25;;;;;;;0.20;0.10;;;22.20;44.30;;;;;;5113763;28;20671;-31
2024/01/10 03:32:51;;;;;;;1.20;0.25;;;22.20;44.30;;;;;;5119247;28;20086;-31
2024/01/10 03:35:17;;;;;;;1.02;0.17;;;22.10;44.20;;;;;;5124409;27;20041;-35
2024/01/10 03:37:43;;;;;;;0.52;0.20;;;22.10;44.10;;;;;;5122569;28;20063;-32
2024/01/10 03:40:10;;;;;;;0.40;0.20;;;22.10;44.00;;;;;;5117998;27;20080;-34
2024/01/10 03:42:36;;;;;;;0.65;0.30;;;22.20;44.00;;;;;;5121775;28;20028;-33
2024/01/10 03:45:03;;;;;;;0.20;0.20;;;22.10;44.00;;;;;;5123520;28;20024;-35
2024/01/10 03:47:29;;;;;;;0.30;0.20;;;22.10;44.00;;;;;;5114873;28;20019;-36
2024/01/10 03:49:55;;;;;;;0.38;0.25;;;22.10;44.10;;;;;;5113121;28;20028;-36
2024/01/10 03:52:22;;;;;;;0.30;0.20;;;22.10;43.90;;;;;;5116453;28;20484;-31
2024/01/10 03:54:48;;;;;;;0.43;0.22;;;22.10;43.90;;;;;;5107952;28;20081;-31
2024/01/10 03:57:14;;;;;;;1.08;0.20;;;22.10;43.90;;;;;;5115660;28;20543;-34
2024/01/10 03:59:40;;;;;;;0.38;0.20;;;22.10;43.90;;;;;;5121294;28;20081;-33
2024/01/10 04:02:06;;;;;;;0.57;0.20;;;22.10;43.90;;;;;;5118170;28;20028;-31
2024/01/10 04:04:32;;;;;;;0.30;0.20;;;22.10;43.90;;;;;;5114434;28;20036;-34
2024/01/10 04:06:58;;;;;;;0.25;0.20;;;22.00;43.80;;;;;;5118465;28;20031;-31
2024/01/10 04:09:25;;;;;;;0.45;0.22;;;22.00;43.80;;;;;;5114329;28;20487;-36
2024/01/10 04:11:51;;;;;;;0.82;0.35;;;22.10;43.80;;;;;;5110206;28;20020;-35
2024/01/10 04:14:17;;;;;;;1.25;0.20;;;22.10;43.80;;;;;;5115868;28;20439;-32
2024/01/10 04:16:43;;;;;;;1.52;0.30;;;22.00;43.90;;;;;;5112475;28;20031;-32
2024/01/10 04:19:09;;;;;;;0.40;0.30;;;22.00;43.90;;;;;;5108530;28;20027;-31
2024/01/10 04:21:35;;;;;;;0.40;0.20;;;22.00;44.40;;;;;;5106103;28;20069;-35
2024/01/10 04:24:02;;;;;;;0.22;0.20;;;22.00;44.40;;;;;;5112944;28;20031;-31
2024/01/10 04:26:28;;;;;;;0.80;0.25;;;22.00;44.20;;;;;;5111919;28;20044;-33
2024/01/10 04:28:54;;;;;;;0.75;0.28;;;22.00;44.10;;;;;;5118377;28;20100;-36
2024/01/10 04:31:20;;;;;;;1.13;0.32;;;22.00;44.10;;;;;;5118720;28;20027;-34
2024/01/10 04:33:47;;;;;;;3.08;0.40;;;22.00;44.20;;;;;;5120776;27;20027;-31
2024/01/10 04:36:13;;;;;;;0.33;0.20;;;22.00;44.10;;;;;;5117677;28;20034;-30
2024/01/10 04:38:39;;;;;;;10.25;0.40;;;22.00;44.00;;;;;;5119145;28;20562;-36
2024/01/10 04:41:05;;;;;;;7.82;0.50;;;22.10;44.30;;;;;;5120261;28;20035;-32
2024/01/10 04:43:31;;;;;;;18.65;0.50;;;22.10;44.50;;;;;;5116122;28;20383;-32
2024/01/10 04:45:57;;;;;;;2.17;0.40;;;22.00;44.80;;;;;;5111394;28;20028;-33
2024/01/10 04:48:24;;;;;;;2.85;0.30;;;22.00;44.90;;;;;;5117124;28;20057;-33
2024/01/10 04:50:50;;;;;;;1.08;0.30;;;22.00;44.80;;;;;;5122044;28;20031;-34
2024/01/10 04:53:16;;;;;;;1.05;0.22;;;22.00;44.20;;;;;;5114711;27;20031;-34
2024/01/10 04:55:42;;;;;;;2.50;0.30;;;22.00;43.80;;;;;;5114637;28;20020;-32
2024/01/10 04:58:08;;;;;;;2.65;0.20;;;22.00;43.60;;;;;;5113709;28;20042;-34
2024/01/10 05:00:34;;;;;;;0.25;0.20;;;22.00;43.70;;;;;;5110656;27;20862;-32
2024/01/10 05:03:01;;;;;;;0.93;0.30;;;22.00;43.70;;;;;;5114461;28;20052;-30
2024/01/10 05:05:27;;;;;;;0.50;0.20;;;22.00;43.80;;;;;;5111259;28;20040;-32
2024/01/10 05:07:53;;;;;;;0.20;0.20;;;22.00;43.70;;;;;;5111257;28;20031;-34
2024/01/10 05:10:19;;;;;;;1.35;0.40;;;22.00;43.30;;;;;;5117601;28;20047;-33
2024/01/10 05:12:45;;;;;;;1.08;0.30;;;22.00;43.20;;;;;;5115433;28;20055;-33
2024/01/10 05:15:11;;;;;;;0.35;0.20;;;22.00;43.20;;;;;;5107271;28;20081;-32
2024/01/10 05:17:37;;;;;;;1.13;0.30;;;22.00;43.20;;;;;;5108830;28;20146;-31
2024/01/10 05:20:05;;;;;;;0.47;0.30;;;21.90;43.30;;;;;;5115692;28;20024;-32
2024/01/10 05:22:31;;;;;;;0.10;0.10;;;22.00;43.20;;;;;;5113558;28;20138;-34
2024/01/10 05:24:58;;;;;;;0.30;0.20;;;22.00;42.90;;;;;;5111314;28;20034;-32
2024/01/10 05:27:24;;;;;;;0.45;0.30;;;22.00;43.00;;;;;;5115634;28;20047;-32
2024/01/10 05:29:50;;;;;;;0.30;0.20;;;22.00;42.90;;;;;;5115189;28;20035;-34
2024/01/10 05:32:16;;;;;;;0.35;0.20;;;22.00;43.00;;;;;;5110462;28;20070;-31
2024/01/10 05:34:42;;;;;;;0.20;0.20;;;21.90;43.10;;;;;;5119010;28;20027;-33
2024/01/10 05:37:08;;;;;;;0.10;0.10;;;21.90;42.90;;;;;;5118611;28;20035;-32
2024/01/10 05:39:34;;;;;;;0.60;0.30;;;22.00;42.80;;;;;;5116694;28;20031;-32
2024/01/10 05:42:21;;;;;;;0.40;0.20;;;22.00;42.80;;;;;;5112167;28;20028;-34
2024/01/10 05:44:47;;;;;;;0.20;0.20;;;22.00;42.80;;;;;;5074501;28;20032;-32
2024/01/10 05:47:13;;;;;;;0.30;0.30;;;21.90;42.90;;;;;;5077285;28;20045;-31
2024/01/10 05:49:40;;;;;;;0.20;0.20;;;21.90;42.80;;;;;;5083598;28;20277;-36
2024/01/10 05:52:06;;;;;;;0.28;0.22;;;21.90;42.90;;;;;;5078268;28;20814;-33
2024/01/10 05:54:32;;;;;;;0.30;0.30;;;22.00;42.70;;;;;;5061241;28;20162;-31
2024/01/10 05:57:00;;;;;;;0.20;0.13;;;22.00;42.60;;;;;;5079225;28;20279;-34
2024/01/10 05:59:27;;;;;;;0.30;0.20;;;22.00;42.70;;;;;;5080911;28;20029;-33
2024/01/10 06:01:53;;;;;;;0.85;0.30;;;21.90;42.70;;;;;;5081361;28;20029;-33
2024/01/10 06:04:19;;;;;;;0.50;0.40;;;21.90;42.80;;;;;;5083089;28;20091;-34
2024/01/10 06:06:45;;;;;;;0.28;0.20;;;21.90;42.60;;;;;;5081529;28;20060;-33
2024/01/10 06:09:11;;;;;;;0.20;0.20;;;22.00;42.50;;;;;;5075874;28;20437;-34
2024/01/10 06:11:41;;;;;;;0.30;0.20;;;22.00;42.50;;;;;;5079824;28;20037;-34
2024/01/10 06:14:08;;;;;;;0.43;0.20;;;21.90;42.50;;;;;;5076402;28;20028;-33
2024/01/10 06:16:35;;;;;;;0.10;0.10;;;21.90;42.50;;;;;;5080714;28;20037;-34
2024/01/10 06:19:01;;;;;;;0.30;0.30;;;21.90;42.60;;;;;;5079046;28;20471;-32
2024/01/10 06:21:27;;;;;;;0.55;0.30;;;21.90;42.40;;;;;;5095067;28;20548;-32
2024/01/10 06:23:53;;;;;;;0.55;0.20;;;21.90;42.30;;;;;;5113456;28;20051;-32
2024/01/10 06:26:19;;;;;;;0.20;0.20;;;21.90;42.30;;;;;;5123448;28;20106;-32
2024/01/10 06:28:46;;;;;;;0.20;0.20;;;21.90;42.30;;;;;;5112031;28;20031;-32
2024/01/10 06:31:12;;;;;;;0.85;0.30;;;21.90;42.40;;;;;;5119538;28;20031;-34
2024/01/10 06:33:38;;;;;;;0.50;0.30;;;21.90;42.40;;;;;;5114909;28;20023;-34
2024/01/10 06:36:04;;;;;;;0.57;0.20;;;21.90;42.20;;;;;;5115881;28;20012;-34
2024/01/10 06:38:30;;;;;;;0.20;0.20;;;21.90;42.20;;;;;;5114607;28;20096;-35
2024/01/10 06:40:57;;;;;;;0.30;0.30;;;21.90;42.20;;;;;;5124241;27;20024;-32
2024/01/10 06:43:23;;;;;;;0.38;0.20;;;21.90;42.30;;;;;;5113090;28;20035;-34
2024/01/10 06:45:49;;;;;;;0.20;0.20;;;21.80;42.40;;;;;;5111565;28;20024;-33
2024/01/10 06:48:16;;;;;;;0.40;0.17;;;21.80;42.30;;;;;;5118146;28;20032;-32
2024/01/10 06:50:44;;;;;;;0.10;0.10;;;21.90;42.20;;;;;;5116935;28;20028;-33
2024/01/10 06:53:10;;;;;;;0.17;0.17;;;21.90;42.10;;;;;;5115946;28;20038;-30
2024/01/10 06:55:36;;;;;;;0.20;0.20;;;21.90;42.10;;;;;;5121251;28;20043;-33
2024/01/10 06:58:02;;;;;;;0.17;0.17;;;21.90;42.20;;;;;;5116549;28;20158;-34
2024/01/10 07:00:29;;;;;;;0.30;0.15;;;21.80;42.30;;;;;;5115391;28;20028;-34
2024/01/10 07:02:55;;;;;;;0.20;0.20;;;21.80;42.20;;;;;;5118246;28;20032;-30
2024/01/10 07:05:21;;;;;;;0.20;0.20;;;21.90;42.10;;;;;;5118963;28;20773;-34
2024/01/10 07:07:49;;;;;;;0.20;0.20;;;21.90;42.00;;;;;;5113053;28;20081;-34
2024/01/10 07:10:15;;;;;;;0.20;0.20;;;21.90;42.00;;;;;;5119286;28;20049;-32
2024/01/10 07:12:41;;;;;;;0.45;0.30;;;21.90;42.00;;;;;;5114500;28;20028;-33
2024/01/10 07:15:08;;;;;;;0.10;0.10;;;21.80;42.10;;;;;;5115974;27;20019;-33
2024/01/10 07:17:34;;;;;;;0.43;0.20;;;21.80;42.00;;;;;;5109721;28;20565;-30
2024/01/10 07:20:00;;;;;;;0.28;0.22;;;21.80;41.90;;;;;;5115972;27;20061;-32
2024/01/10 07:22:27;;;;;;;0.28;0.20;;;21.90;41.90;;;;;;5122064;27;20049;-35
2024/01/10 07:24:53;;;;;;;0.30;0.20;;;21.90;42.00;;;;;;5112468;28;20027;-32
2024/01/10 07:27:19;;;;;;;0.20;0.13;;;21.80;41.90;;;;;;5108533;28;20040;-30
2024/01/10 07:29:46;;;;;;;0.20;0.20;;;21.80;41.90;;;;;;5112744;28;20023;-29
2024/01/10 07:32:13;;;;;;;1.65;0.20;;;21.80;42.00;;;;;;5119263;27;20031;-33
2024/01/10 07:34:39;;;;;;;;;;;21.90;42.00;;;;;;5112512;28;20028;-34
2024/01/10 07:37:05;;;;;;;0.50;0.20;;;21.90;41.90;;;;;;5111156;28;20413;-33
2024/01/10 07:39:31;;;;;;;0.20;0.20;;;21.90;41.90;;;;;;5114150;28;20023;-34
2024/01/10 07:41:57;;;;;;;0.68;0.25;;;21.80;42.00;;;;;;5121984;28;20035;-33
2024/01/10 07:44:24;;;;;;;0.35;0.17;;;21.80;42.00;;;;;;5114749;28;20032;-30
2024/01/10 07:46:54;;;;;;;0.20;0.20;;;21.80;41.90;;;;;;5116983;28;20399;-34
2024/01/10 07:49:21;;;;;;;0.45;0.10;;;21.90;41.80;;;;;;5122527;28;20031;-34
2024/01/10 07:51:47;;;;;;;0.60;0.10;;;21.90;41.70;;;;;;5107973;28;20424;-32
2024/01/10 07:54:13;;;;;;;0.40;0.40;;;21.80;41.70;;;;;;5114125;28;20044;-35
2024/01/10 07:56:40;;;;;;;0.20;0.20;;;21.80;41.70;;;;;;5114717;28;20040;-33
2024/01/10 07:59:06;;;;;;;0.20;0.20;;;21.80;41.80;;;;;;5109080;28;20053;-32
2024/01/10 08:01:32;;;;;;;0.15;0.15;;;21.80;41.80;;;;;;5115821;28;20275;-35
2024/01/10 08:03:58;;;;;;;0.10;0.10;;;21.80;41.60;;;;;;5109080;28;20024;-32
2024/01/10 08:06:25;;;;;;;0.10;0.10;;;21.90;41.60;;;;;;5111162;28;20028;-36
2024/01/10 08:08:51;;;;;;;0.10;0.10;;;21.80;41.60;;;;;;5113356;28;20057;-33
2024/01/10 08:11:17;;;;;;;0.20;0.10;;;21.80;41.60;;;;;;5113173;28;20065;-34
2024/01/10 08:13:43;;;;;;;0.20;0.20;;;21.80;41.60;;;;;;5116899;28;20039;-33
2024/01/10 08:16:09;;;;;;;0.20;0.20;;;21.80;41.60;;;;;;5115669;28;20035;-35
2024/01/10 08:18:35;;;;;;;0.20;0.10;;;21.90;41.60;;;;;;5113883;28;20035;-35
2024/01/10 08:21:01;;;;;;;0.17;0.17;;;21.90;41.60;;;;;;5119119;28;20023;-34
2024/01/10 08:23:27;;;;;;;0.15;0.10;;;21.80;41.50;;;;;;5119451;28;20074;-32
2024/01/10 08:25:55;;;;;;;0.20;0.20;;;21.80;41.60;;;;;;5115325;28;20031;-33
2024/01/10 08:28:21;;;;;;;0.10;0.10;;;21.80;41.70;;;;;;5111629;28;20031;-35
2024/01/10 08:30:47;;;;;;;0.10;0.10;;;21.80;41.50;;;;;;5120474;28;20023;-31
2024/01/10 08:33:13;;;;;;;0.30;0.10;;;21.90;41.60;;;;;;5114490;28;20384;-32
2024/01/10 08:35:40;;;;;;;0.28;0.20;;;21.90;41.40;;;;;;5115243;28;20023;-32
2024/01/10 08:38:07;;;;;;;0.15;0.15;;;21.80;41.30;;;;;;5117056;28;20050;-34
2024/01/10 08:40:33;;;;;;;0.28;0.10;;;21.80;41.50;;;;;;5114130;28;20046;-33
2024/01/10 08:42:59;;;;;;;0.20;0.20;;;21.80;41.60;;;;;;5116084;28;20485;-32
2024/01/10 08:45:25;;;;;;;0.10;0.10;;;21.80;41.40;;;;;;5115283;28;20113;-33
2024/01/10 08:47:53;;;;;;;0.20;0.20;;;21.90;41.40;;;;;;5120350;28;20030;-30
2024/01/10 08:50:19;;;;;;;0.10;0.10;;;21.80;41.20;;;;;;5112499;28;20087;-32
2024/01/10 08:52:45;;;;;;;0.22;0.20;;;21.80;41.30;;;;;;5112172;28;20031;-36
2024/01/10 08:55:11;;;;;;;0.20;0.10;;;21.80;41.40;;;;;;5121048;28;20031;-31
2024/01/10 08:57:37;;;;;;;0.20;0.20;;;21.80;41.40;;;;;;5120624;28;20035;-31
2024/01/10 09:00:06;;;;;;;0.17;0.17;;;21.80;41.30;;;;;;5110616;28;20024;-35
2024/01/10 09:02:33;;;;;;;0.13;0.13;;;21.90;41.30;;;;;;5119370;28;20034;-31
2024/01/10 09:04:59;;;;;;;0.10;0.10;;;21.90;41.30;;;;;;5119161;28;20031;-33
2024/01/10 09:07:26;;;;;;;0.45;0.20;;;21.80;41.30;;;;;;5112109;28;20039;-33
2024/01/10 09:09:52;;;;;;;0.20;0.20;;;21.80;41.50;;;;;;5115088;28;20023;-34
2024/01/10 09:12:18;;;;;;;0.40;0.20;;;21.80;41.40;;;;;;5118895;28;20038;-29
2024/01/10 09:14:44;;;;;;;0.30;0.10;;;21.80;41.20;;;;;;5116290;28;20107;-30
2024/01/10 09:17:11;;;;;;;1.27;0.20;;;21.90;41.30;;;;;;5108519;28;20074;-29
2024/01/10 09:19:37;;;;;;;0.20;0.20;;;21.90;41.30;;;;;;5117274;28;20023;-32
2024/01/10 09:22:03;;;;;;;0.82;0.20;;;21.80;41.30;;;;;;5120426;28;20049;-29
2024/01/10 09:24:30;;;;;;;1.45;0.10;;;21.80;41.50;;;;;;5111428;28;20024;-30
2024/01/10 09:26:56;;;;;;;1.10;0.10;;;21.80;41.40;;;;;;5115946;28;20051;-35
2024/01/10 09:29:23;;;;;;;0.22;0.22;;;21.90;41.40;;;;;;5116005;28;20159;-34
2024/01/10 09:31:49;;;;;;;0.20;0.20;;;21.90;41.30;;;;;;5113979;28;20055;-34
2024/01/10 09:34:15;;;;;;;0.10;0.10;;;21.90;41.30;;;;;;5121376;28;20038;-33
2024/01/10 09:36:42;;;;;;;0.20;0.20;;;21.80;41.30;;;;;;5117667;28;20552;-29
2024/01/10 09:39:13;;;;;;;0.10;0.10;;;21.80;41.40;;;;;;5112723;28;20050;-32
2024/01/10 09:41:45;;;;;;;0.10;0.10;;;21.80;41.30;;;;;;5117524;28;20700;-33
2024/01/10 09:44:11;;;;;;;0.30;0.20;;;21.90;41.20;;;;;;5112554;27;20035;-32
2024/01/10 09:46:38;;;;;;;0.47;0.10;;;21.90;41.20;;;;;;5115315;28;20031;-35
2024/01/10 09:49:04;;;;;;;0.20;0.10;;;21.90;41.10;;;;;;5120346;28;20101;-31
2024/01/10 09:51:30;;;;;;;0.30;0.20;;;21.80;41.20;;;;;;5112284;28;20098;-33
2024/01/10 09:53:56;;;;;;;0.20;0.20;;;21.80;41.20;;;;;;5122570;28;20030;-35
2024/01/10 09:56:22;;;;;;;0.30;0.30;;;21.90;41.10;;;;;;5134671;27;20028;-33
2024/01/10 09:58:49;;;;;;;3.08;0.20;;;22.00;41.00;;;;;;5113622;28;20027;-32
2024/01/10 10:01:15;;;;;;;0.50;0.20;;;22.10;40.90;;;;;;5118723;28;20031;-34
2024/01/10 10:03:42;;;;;;;5.70;0.43;;;22.30;40.80;;;;;;5115546;28;20443;-35
2024/01/10 10:06:08;;;;;;;0.10;0.10;;;22.30;40.80;;;;;;5117682;28;20046;-34
2024/01/10 10:08:34;;;;;;;0.40;0.20;;;22.40;40.90;;;;;;5121595;28;20027;-33
2024/01/10 10:11:00;;;;;;;1.10;0.20;;;22.50;40.70;;;;;;5116757;28;20035;-33
2024/01/10 10:13:28;;;;;;;0.20;0.20;;;22.50;40.80;;;;;;5119206;28;20049;-35
2024/01/10 10:15:58;;;;;;;;;;;22.40;40.90;;;;;;5119307;28;20027;-35
2024/01/10 10:18:24;;;;;;;0.30;0.10;;;22.30;40.90;;;;;;5116457;27;19919;-36
2024/01/10 10:21:07;;;;;;;0.20;0.20;;;22.20;41.00;;;;;;5109454;28;20028;-33
2024/01/10 10:23:34;;;;;;;1.02;0.20;;;22.20;41.30;;;;;;5115386;28;20031;-33
2024/01/10 10:26:21;;;;;;;1.90;0.20;;;22.10;41.20;;;;;;5115099;28;20147;-35
2024/01/10 10:28:48;;;;;;;0.45;0.20;;;22.10;41.10;;;;;;5114582;28;20059;-32
2024/01/10 10:31:16;;;;;;;4.28;0.20;;;22.10;41.20;;;;;;5116718;28;20062;-33
2024/01/10 10:33:43;;;;;;;0.13;0.10;;;22.00;41.30;;;;;;5113212;28;20028;-32
2024/01/10 10:36:09;;;;;;;0.50;0.20;;;22.00;41.30;;;;;;5111547;28;20039;-32
2024/01/10 10:38:39;;;;;;;0.30;0.20;;;21.90;41.50;;;;;;5127284;27;20040;-33
2024/01/10 10:41:10;;;;;;;0.35;0.20;;;21.90;41.30;;;;;;5116658;28;20038;-30
2024/01/10 10:43:37;;;;;;;0.10;0.10;;;21.90;41.30;;;;;;5117921;28;20036;-32
2024/01/10 10:46:06;;;;;;;2.40;0.20;;;22.00;41.20;;;;;;5113829;28;20020;-33
2024/01/10 10:48:35;;;;;;;0.10;0.10;;;22.20;41.10;;;;;;5112991;28;20035;-31
2024/01/10 10:51:19;;;;;;;0.10;0.10;;;22.30;41.00;;;;;;5115196;28;20031;-31
2024/01/10 10:53:45;;;;;;;0.10;0.10;;;22.40;40.90;;;;;;5118286;28;20031;-36
2024/01/10 10:56:12;;;;;;;0.20;0.20;;;22.50;40.70;;;;;;5120469;28;20376;-33
2024/01/10 10:58:40;;;;;;;1.00;0.20;;;22.50;40.70;;;;;;5122124;28;20059;-35
2024/01/10 11:01:07;;;;;;;0.10;0.10;;;22.40;40.80;;;;;;5114454;28;20056;-31
2024/01/10 11:03:37;;;;;;;0.30;0.10;;;22.30;41.00;;;;;;5114851;28;20057;-33
2024/01/10 11:06:04;;;;;;;0.10;0.10;;;22.20;41.10;;;;;;5118512;28;20031;-32
2024/01/10 11:08:37;;;;;;;0.10;0.10;;;22.10;41.20;;;;;;5111802;28;20052;-33
2024/01/10 11:11:06;;;;;;;0.20;0.20;;;22.10;41.00;;;;;;5111505;28;20548;-36
2024/01/10 11:14:04;;;;;;;0.28;0.20;;;22.10;41.00;;;;;;5114054;28;20032;-32
2024/01/10 11:16:57;;;;;;;0.13;0.10;;;22.10;41.10;;;;;;5107933;28;20051;-33
2024/01/10 11:19:35;;;;;;;0.20;0.20;;;22.00;41.30;;;;;;5116975;27;20027;-35
2024/01/10 11:22:16;;;;;;;0.20;0.10;;;21.90;41.30;;;;;;5116071;28;20043;-34
2024/01/10 11:24:42;;;;;;;0.17;0.17;;;21.90;41.40;;;;;;5109960;28;20060;-30
2024/01/10 11:27:15;;;;;;;0.20;0.20;;;21.90;41.20;;;;;;5116659;28;20104;-34
2024/01/10 11:29:44;;;;;;;0.25;0.20;;;21.90;41.20;;;;;;5109508;27;20176;-31
2024/01/10 11:32:17;;;;;;;1.65;0.10;;;22.00;41.30;;;;;;5114531;28;20118;-33
2024/01/10 11:34:59;;;;;;;0.32;0.20;;;22.10;41.10;;;;;;5113772;28;20102;-32
2024/01/10 11:37:44;;;;;;;0.20;0.20;;;22.30;40.90;;;;;;5117076;27;20036;-33
2024/01/10 11:40:13;;;;;;;0.20;0.20;;;22.40;40.70;;;;;;5117073;28;20027;-31
2024/01/10 11:42:43;;;;;;;0.20;0.20;;;22.40;40.70;;;;;;5109221;27;20030;-34
2024/01/10 11:45:09;;;;;;;0.20;0.20;;;22.30;40.80;;;;;;5119270;28;20035;-33
2024/01/10 11:47:42;;;;;;;0.10;0.10;;;22.20;41.00;;;;;;5114330;28;20032;-31
2024/01/10 11:50:09;;;;;;;0.55;0.20;;;22.10;41.10;;;;;;5112357;28;20054;-34
2024/01/10 11:52:36;;;;;;;0.10;0.10;;;22.00;41.20;;;;;;5115076;28;20055;-31
2024/01/10 11:55:04;;;;;;;0.15;0.15;;;22.00;41.10;;;;;;5108410;28;20024;-34
2024/01/10 11:57:33;;;;;;;0.13;0.13;;;22.00;41.00;;;;;;5109997;28;20039;-36
2024/01/10 12:00:00;;;;;;;0.22;0.20;;;22.00;41.20;;;;;;5112897;28;20020;-32
2024/01/10 12:02:27;;;;;;;0.20;0.20;;;22.00;41.30;;;;;;5110136;28;20031;-33
2024/01/10 12:04:53;;;;;;;;;;;21.90;41.30;;;;;;5113262;28;20032;-35
2024/01/10 12:07:20;;;;;;;0.20;0.20;;;21.80;41.70;;;;;;5112721;27;20133;-34
2024/01/10 12:10:09;;;;;;;0.20;0.20;;;21.80;41.80;;;;;;5114191;28;20039;-33
2024/01/10 12:12:36;;;;;;;0.10;0.10;;;21.90;41.70;;;;;;5077476;28;20066;-31
2024/01/10 12:15:02;;;;;;;0.22;0.15;;;22.10;41.40;;;;;;5072683;28;20088;-31
2024/01/10 12:17:29;;;;;;;0.22;0.22;;;22.20;41.10;;;;;;5072842;28;20760;-30
2024/01/10 12:19:55;;;;;;;0.10;0.10;;;22.40;41.00;;;;;;5074987;28;20033;-35
2024/01/10 12:22:21;;;;;;;0.50;0.20;;;22.50;40.80;;;;;;5078919;28;20045;-33
2024/01/10 12:24:50;;;;;;;0.13;0.13;;;22.50;40.70;;;;;;5073158;28;20024;-33
2024/01/10 12:27:20;;;;;;;0.30;0.20;;;22.50;40.80;;;;;;5078533;28;20048;-31
2024/01/10 12:29:50;;;;;;;0.38;0.20;;;22.40;40.90;;;;;;5077297;28;20064;-33
2024/01/10 12:32:19;;;;;;;0.20;0.20;;;22.30;41.10;;;;;;5073893;28;20029;-32
2024/01/10 12:34:45;;;;;;;0.20;0.20;;;22.20;41.10;;;;;;5070733;28;20076;-29
2024/01/10 12:37:11;;;;;;;0.43;0.15;;;22.20;41.40;;;;;;5076484;28;20048;-34
2024/01/10 12:39:38;;;;;;;0.43;0.20;;;22.10;41.20;;;;;;5074700;28;20059;-32
2024/01/10 12:42:04;;;;;;;0.20;0.20;;;22.10;41.10;;;;;;5084801;28;20021;-31
2024/01/10 12:44:31;;;;;;;0.30;0.30;;;22.10;41.20;;;;;;5073982;28;20036;-32
2024/01/10 12:46:57;;;;;;;0.30;0.20;;;22.10;41.30;;;;;;5079287;28;20186;-33